createdAt,value
2023-05-18T00:00:17.925Z,100438.72
2023-05-18T00:02:50.747Z,100439.56
2023-05-18T00:05:23.496Z,100431.06
2023-05-18T00:07:54.459Z,100439.13
2023-05-18T00:10:24.714Z,100437.94
2023-05-18T00:12:55.558Z,100438.31
2023-05-18T00:15:26.390Z,100443.19
2023-05-18T00:17:57.579Z,100458.97
2023-05-18T00:20:30.382Z,100455.72
2023-05-18T00:23:00.994Z,100455.72
2023-05-18T00:25:31.884Z,100458.91
2023-05-18T00:28:02.450Z,100460.97
2023-05-18T00:30:32.895Z,100467.81
2023-05-18T00:33:03.477Z,100468.25
2023-05-18T00:35:35.557Z,100460.53
2023-05-18T00:38:05.688Z,100467.81
2023-05-18T00:40:36.333Z,100465.00
2023-05-18T00:43:07.219Z,100467.81
2023-05-18T00:45:37.739Z,100465.78
2023-05-18T00:48:09.006Z,100469.44
2023-05-18T00:50:41.285Z,100468.22
2023-05-18T00:53:13.100Z,100462.53
2023-05-18T00:55:43.212Z,100460.53
2023-05-18T00:58:14.831Z,100468.63
2023-05-18T01:00:45.494Z,100466.59
2023-05-18T01:03:15.848Z,100464.56
2023-05-18T01:05:50.705Z,100469.03
2023-05-18T01:08:21.580Z,100471.84
2023-05-18T01:11:07.340Z,100470.25
2023-05-18T01:13:49.427Z,100483.59
2023-05-18T01:16:34.626Z,100476.31
2023-05-18T01:19:22.394Z,100486.81
2023-05-18T01:22:06.066Z,100480.34
2023-05-18T01:24:45.242Z,100490.03
2023-05-18T01:27:19.738Z,100487.59
2023-05-18T01:29:52.634Z,100491.25
2023-05-18T01:32:23.634Z,100496.50
2023-05-18T01:34:54.151Z,100483.97
2023-05-18T01:37:24.798Z,100481.97
2023-05-18T01:39:55.448Z,100494.88
2023-05-18T01:42:33.060Z,100497.31
2023-05-18T01:45:11.716Z,100500.56
2023-05-18T01:47:47.055Z,100506.63
2023-05-18T01:50:22.638Z,100505.81
2023-05-18T01:53:04.802Z,100506.63
2023-05-18T01:55:37.786Z,100505.81
2023-05-18T01:58:12.509Z,100511.91
2023-05-18T02:00:45.116Z,100513.13
2023-05-18T02:03:17.072Z,100502.59
2023-05-18T02:05:47.622Z,100516.38
2023-05-18T02:08:18.267Z,100521.22
2023-05-18T02:10:48.819Z,100522.84
2023-05-18T02:13:20.046Z,100521.63
2023-05-18T02:15:50.182Z,100524.03
2023-05-18T02:18:22.575Z,100532.16
2023-05-18T02:20:53.142Z,100532.56
2023-05-18T02:23:23.210Z,100532.16
2023-05-18T02:25:55.835Z,100531.34
2023-05-18T02:28:28.321Z,100536.19
2023-05-18T02:31:08.010Z,100539.44
2023-05-18T02:33:40.450Z,100546.69
2023-05-18T02:36:15.371Z,100544.69
2023-05-18T02:38:47.260Z,100542.66
2023-05-18T02:41:17.938Z,100545.09
2023-05-18T02:43:50.003Z,100546.72
2023-05-18T02:46:20.676Z,100551.19
2023-05-18T02:48:51.521Z,100548.72
2023-05-18T02:51:22.128Z,100549.16
2023-05-18T02:53:52.230Z,100546.72
2023-05-18T02:56:22.664Z,100548.31
2023-05-18T02:58:59.079Z,100553.16
2023-05-18T03:01:29.714Z,100563.66
2023-05-18T03:03:59.809Z,100573.78
2023-05-18T03:06:30.768Z,100581.91
2023-05-18T03:09:01.333Z,100579.06
2023-05-18T03:11:32.154Z,100580.28
2023-05-18T03:14:04.801Z,100588.75
2023-05-18T03:16:39.215Z,100592.38
2023-05-18T03:19:09.554Z,100593.59
2023-05-18T03:21:40.038Z,100602.09
2023-05-18T03:24:13.112Z,100594.44
2023-05-18T03:26:44.721Z,100593.59
2023-05-18T03:29:18.206Z,100601.28
2023-05-18T03:31:49.413Z,100602.91
2023-05-18T03:34:20.034Z,100608.19
2023-05-18T03:36:52.967Z,100607.38
2023-05-18T03:39:23.804Z,100611.41
2023-05-18T03:41:54.519Z,100619.50
2023-05-18T03:44:26.678Z,100616.63
2023-05-18T03:46:57.400Z,100622.69
2023-05-18T03:49:27.759Z,100623.09
2023-05-18T03:51:57.812Z,100622.66
2023-05-18T03:54:27.823Z,100638.03
2023-05-18T03:56:58.473Z,100637.63
2023-05-18T03:59:29.967Z,100635.19
2023-05-18T04:02:00.703Z,100646.53
2023-05-18T04:04:31.570Z,100652.19
2023-05-18T04:07:02.880Z,100648.97
2023-05-18T04:09:32.990Z,100658.28
2023-05-18T04:12:03.491Z,100662.38
2023-05-18T04:14:35.644Z,100670.47
2023-05-18T04:17:06.984Z,100670.06
2023-05-18T04:19:38.140Z,100678.59
2023-05-18T04:22:10.217Z,100676.56
2023-05-18T04:24:41.678Z,100676.56
2023-05-18T04:27:12.601Z,100683.84
2023-05-18T04:29:45.724Z,100683.44
2023-05-18T04:32:19.089Z,100688.69
2023-05-18T04:34:51.064Z,100688.28
2023-05-18T04:37:21.719Z,100691.91
2023-05-18T04:39:52.501Z,100693.94
2023-05-18T04:42:23.029Z,100690.31
2023-05-18T04:44:54.797Z,100694.78
2023-05-18T04:47:24.890Z,100693.56
2023-05-18T04:49:56.170Z,100699.28
2023-05-18T04:52:26.700Z,100698.09
2023-05-18T04:54:56.897Z,100696.81
2023-05-18T04:57:27.345Z,100695.66
2023-05-18T04:59:59.441Z,100701.75
2023-05-18T05:02:30.040Z,100706.59
2023-05-18T05:05:00.133Z,100693.28
2023-05-18T05:07:30.662Z,100700.56
2023-05-18T05:10:01.185Z,100703.41
2023-05-18T05:12:31.780Z,100696.13
2023-05-18T05:15:03.646Z,100700.16
2023-05-18T05:17:34.337Z,100702.63
2023-05-18T05:20:04.590Z,100706.66
2023-05-18T05:22:34.573Z,100707.47
2023-05-18T05:25:06.234Z,100710.72
2023-05-18T05:27:36.975Z,100711.56
2023-05-18T05:30:11.617Z,100701.84
2023-05-18T05:32:42.259Z,100702.22
2023-05-18T06:28:12.161Z,100750.16
2023-05-18T06:31:21.597Z,100741.31
2023-05-18T06:37:53.471Z,100756.72
2023-05-18T06:40:23.635Z,100753.88
2023-05-18T06:42:56.124Z,100754.31
2023-05-18T06:45:26.439Z,100761.22
2023-05-18T06:47:56.876Z,100764.06
2023-05-18T06:50:27.061Z,100756.78
2023-05-18T06:52:57.422Z,100758.81
2023-05-18T06:55:27.713Z,100756.44
2023-05-18T06:58:00.064Z,100760.91
2023-05-18T07:00:30.368Z,100766.59
2023-05-18T07:03:00.661Z,100756.06
2023-05-18T07:05:31.347Z,100761.31
2023-05-18T07:08:05.475Z,100759.31
2023-05-18T07:10:35.819Z,100765.78
2023-05-18T07:13:08.544Z,100757.28
2023-05-18T07:15:38.675Z,100765.41
2023-05-18T07:18:09.353Z,100758.91
2023-05-18T07:20:39.618Z,100771.88
2023-05-18T07:23:10.316Z,100768.66
2023-05-18T07:25:40.382Z,100769.44
2023-05-18T07:28:12.805Z,100765.00
2023-05-18T07:30:43.261Z,100772.69
2023-05-18T07:33:13.334Z,100765.41
2023-05-18T07:35:43.770Z,100780.41
2023-05-18T07:38:13.885Z,100772.28
2023-05-18T07:40:44.062Z,100771.88
2023-05-18T07:43:16.507Z,100772.31
2023-05-18T07:45:46.631Z,100770.69
2023-05-18T07:48:16.741Z,100772.72
2023-05-18T07:50:48.023Z,100765.84
2023-05-18T07:53:17.985Z,100771.50
2023-05-18T07:55:48.371Z,100767.84
2023-05-18T07:58:20.549Z,100765.41
2023-05-18T08:00:51.478Z,100769.03
2023-05-18T08:03:22.482Z,100780.81
2023-05-18T08:05:56.241Z,100784.06
2023-05-18T08:08:26.626Z,100791.38
2023-05-18T08:10:56.518Z,100780.81
2023-05-18T08:13:28.889Z,100782.44
2023-05-18T08:16:11.168Z,100786.50
2023-05-18T08:18:43.139Z,100791.34
2023-05-18T08:21:14.424Z,100784.84
2023-05-18T08:23:44.535Z,100780.38
2023-05-18T08:26:17.598Z,100792.56
2023-05-18T08:28:49.498Z,100789.31
2023-05-18T08:31:20.112Z,100788.50
2023-05-18T08:33:51.719Z,100784.06
2023-05-18T08:36:22.845Z,100787.28
2023-05-18T08:38:53.790Z,100786.47
2023-05-18T08:41:33.219Z,100783.63
2023-05-18T08:44:11.888Z,100775.91
2023-05-18T08:46:47.660Z,100781.59
2023-05-18T08:49:22.838Z,100788.91
2023-05-18T08:52:00.274Z,100782.44
2023-05-18T08:54:34.901Z,100778.34
2023-05-18T08:57:07.216Z,100775.13
2023-05-18T08:59:45.367Z,100779.59
2023-05-18T09:02:17.398Z,100772.28
2023-05-18T09:04:49.581Z,100773.91
2023-05-18T09:07:21.900Z,100773.91
2023-05-18T09:09:52.485Z,100771.84
2023-05-18T09:12:24.885Z,100768.59
2023-05-18T09:14:58.360Z,100768.22
2023-05-18T09:17:28.205Z,100758.88
2023-05-18T09:19:58.651Z,100762.13
2023-05-18T09:22:29.999Z,100760.91
2023-05-18T09:25:00.328Z,100750.75
2023-05-18T09:27:32.898Z,100756.84
2023-05-18T09:30:05.660Z,100752.78
2023-05-18T09:32:39.313Z,100755.63
2023-05-18T09:35:11.382Z,100765.78
2023-05-18T09:37:45.112Z,100766.97
2023-05-18T09:40:17.098Z,100776.28
2023-05-18T09:42:49.430Z,100778.34
2023-05-18T09:45:24.686Z,100776.72
2023-05-18T09:47:55.996Z,100785.66
2023-05-18T09:50:28.107Z,100779.56
2023-05-18T09:52:58.763Z,100786.88
2023-05-18T09:55:29.362Z,100782.84
2023-05-18T09:57:59.687Z,100783.22
2023-05-18T10:00:33.283Z,100786.06
2023-05-18T10:03:04.437Z,100795.00
2023-05-18T10:05:36.430Z,100779.19
2023-05-18T10:08:07.666Z,100785.28
2023-05-18T10:10:44.844Z,100777.13
2023-05-18T10:13:19.982Z,100784.44
2023-05-18T10:15:57.508Z,100780.81
2023-05-18T10:18:29.925Z,100790.13
2023-05-18T10:21:14.728Z,100791.75
2023-05-18T10:23:50.501Z,100794.59
2023-05-18T10:26:25.856Z,100791.34
2023-05-18T10:28:59.301Z,100794.59
2023-05-18T10:31:38.037Z,100788.09
2023-05-18T10:34:10.940Z,100790.56
2023-05-18T10:36:41.788Z,100789.31
2023-05-18T10:39:15.062Z,100778.78
2023-05-18T10:41:48.006Z,100785.69
2023-05-18T10:44:18.967Z,100780.81
2023-05-18T10:46:53.087Z,100773.53
2023-05-18T10:49:25.715Z,100776.38
2023-05-18T10:51:57.204Z,100781.22
2023-05-18T10:54:27.840Z,100773.53
2023-05-18T10:56:59.502Z,100779.63
2023-05-18T10:59:30.689Z,100771.09
2023-05-18T11:02:09.105Z,100773.53
2023-05-18T11:04:42.290Z,100769.06
2023-05-18T11:07:15.816Z,100775.56
2023-05-18T11:09:47.490Z,100775.56
2023-05-18T11:12:20.183Z,100769.47
2023-05-18T11:14:58.021Z,100778.41
2023-05-18T11:17:33.228Z,100780.41
2023-05-18T11:20:22.139Z,100773.50
2023-05-18T11:22:53.591Z,100767.03
2023-05-18T11:25:57.042Z,100770.28
2023-05-18T11:28:31.614Z,100760.94
2023-05-18T11:31:02.514Z,100769.06
2023-05-18T11:33:36.969Z,100768.66
2023-05-18T11:36:12.082Z,100762.97
2023-05-18T11:38:53.050Z,100766.19
2023-05-18T11:41:39.547Z,100752.00
2023-05-18T11:44:19.596Z,100753.22
2023-05-18T11:47:01.941Z,100747.97
2023-05-18T11:49:38.318Z,100756.88
2023-05-18T11:52:18.661Z,100750.41
2023-05-18T11:54:53.628Z,100755.25
2023-05-18T11:57:27.931Z,100752.00
2023-05-18T12:00:03.406Z,100758.09
2023-05-18T12:02:35.656Z,100760.13
2023-05-18T12:05:14.832Z,100764.19
2023-05-18T12:07:47.335Z,100758.50
2023-05-18T12:10:18.523Z,100762.19
2023-05-18T12:12:54.062Z,100762.56
2023-05-18T12:15:29.205Z,100758.53
2023-05-18T12:18:02.447Z,100756.09
2023-05-18T12:20:37.071Z,100759.75
2023-05-18T12:23:07.595Z,100767.84
2023-05-18T12:25:40.042Z,100758.09
2023-05-18T12:28:11.899Z,100766.25
2023-05-18T12:30:44.332Z,100758.94
2023-05-18T12:33:16.465Z,100766.25
2023-05-18T12:35:48.645Z,100753.66
2023-05-18T12:38:21.982Z,100766.25
2023-05-18T12:40:53.704Z,100745.97
2023-05-18T12:43:24.382Z,100757.31
2023-05-18T12:45:54.936Z,100762.16
2023-05-18T12:48:27.216Z,100750.81
2023-05-18T12:50:59.196Z,100743.50
2023-05-18T12:53:48.442Z,100757.28
2023-05-18T12:56:21.455Z,100743.91
2023-05-18T12:59:03.898Z,100742.69
2023-05-18T13:01:49.086Z,100739.44
2023-05-18T13:04:19.187Z,100729.69
2023-05-18T13:06:52.437Z,100726.47
2023-05-18T13:09:22.761Z,100730.09
2023-05-18T13:12:06.194Z,100722.41
2023-05-18T13:14:43.892Z,100728.47
2023-05-18T13:17:24.127Z,100731.75
2023-05-18T13:20:07.933Z,100727.69
2023-05-18T13:23:04.884Z,100735.00
2023-05-18T13:25:43.130Z,100730.91
2023-05-18T13:28:54.010Z,100728.06
2023-05-18T13:31:42.912Z,100728.06
2023-05-18T13:34:20.971Z,100734.59
2023-05-18T13:36:50.687Z,100735.38
2023-05-18T13:39:25.445Z,100734.56
2023-05-18T13:41:55.995Z,100740.25
2023-05-18T13:44:26.319Z,100730.50
2023-05-18T13:46:56.694Z,100732.13
2023-05-18T13:49:27.173Z,100724.03
2023-05-18T13:52:01.521Z,100723.22
2023-05-18T13:54:33.988Z,100731.34
2023-05-18T13:57:04.147Z,100728.88
2023-05-18T13:59:40.029Z,100726.47
2023-05-18T14:02:11.098Z,100721.59
2023-05-18T14:04:42.373Z,100720.78
2023-05-18T14:07:13.045Z,100733.34
2023-05-18T14:09:44.930Z,100744.28
2023-05-18T14:12:15.444Z,100744.72
2023-05-18T14:14:46.848Z,100742.25
2023-05-18T14:17:17.210Z,100743.88
2023-05-18T14:19:47.656Z,100739.41
2023-05-18T14:22:19.302Z,100742.25
2023-05-18T14:24:51.208Z,100742.25
2023-05-18T14:27:22.788Z,100737.38
2023-05-18T14:29:53.816Z,100746.31
2023-05-18T14:32:25.451Z,100740.19
2023-05-18T14:34:58.359Z,100736.56
2023-05-18T14:37:29.131Z,100742.22
2023-05-18T14:40:01.761Z,100751.13
2023-05-18T14:42:33.759Z,100741.81
2023-05-18T14:45:05.495Z,100743.81
2023-05-18T14:47:36.826Z,100743.38
2023-05-18T14:50:09.032Z,100746.63
2023-05-18T14:52:39.206Z,100744.22
2023-05-18T14:55:15.668Z,100750.28
2023-05-18T14:57:45.808Z,100749.06
2023-05-18T15:00:17.513Z,100735.28
2023-05-18T15:02:48.139Z,100739.31
2023-05-18T15:05:18.589Z,100749.41
2023-05-18T15:07:49.138Z,100749.41
2023-05-18T15:10:37.065Z,100750.25
2023-05-18T15:13:07.629Z,100751.88
2023-05-18T15:15:38.460Z,100750.63
2023-05-18T15:18:08.701Z,100744.16
2023-05-18T15:20:40.069Z,100747.00
2023-05-18T15:23:10.726Z,100753.03
2023-05-18T15:25:43.942Z,100751.44
2023-05-18T15:28:16.064Z,100754.66
2023-05-18T15:31:04.343Z,100753.03
2023-05-18T15:34:11.802Z,100748.56
2023-05-18T15:36:43.063Z,100752.59
2023-05-18T15:39:18.838Z,100745.31
2023-05-18T15:41:57.086Z,100748.16
2023-05-18T15:44:52.593Z,100749.38
2023-05-18T15:47:25.084Z,100759.44
2023-05-18T15:50:23.019Z,100760.66
2023-05-18T15:53:45.131Z,100770.78
2023-05-18T15:56:19.529Z,100765.91
2023-05-18T15:59:01.680Z,100767.13
2023-05-18T16:01:34.225Z,100769.53
2023-05-18T16:04:21.126Z,100774.38
2023-05-18T16:06:53.339Z,100784.47
2023-05-18T16:09:26.751Z,100783.25
2023-05-18T16:11:57.812Z,100788.09
2023-05-18T16:14:31.976Z,100786.47
2023-05-18T16:17:04.088Z,100780.00
2023-05-18T16:19:34.938Z,100781.22
2023-05-18T16:22:05.810Z,100786.47
2023-05-18T16:24:37.850Z,100782.41
2023-05-18T16:27:08.898Z,100793.31
2023-05-18T16:29:41.982Z,100797.34
2023-05-18T16:32:12.520Z,100795.28
2023-05-18T16:34:43.281Z,100788.81
2023-05-18T16:37:14.446Z,100792.41
2023-05-18T16:39:45.148Z,100802.53
2023-05-18T16:42:24.949Z,100800.09
2023-05-18T16:44:57.963Z,100799.69
2023-05-18T16:47:29.158Z,100802.09
2023-05-18T16:50:02.486Z,100800.03
2023-05-18T16:52:33.332Z,100793.94
2023-05-18T16:55:03.771Z,100795.56
2023-05-18T16:57:34.401Z,100790.69
2023-05-18T17:00:12.842Z,100790.69
2023-05-18T17:02:44.939Z,100782.56
2023-05-18T17:05:22.000Z,100795.50
2023-05-18T17:07:55.446Z,100785.78
2023-05-18T17:10:29.374Z,100792.66
2023-05-18T17:13:00.441Z,100796.25
2023-05-18T17:15:37.347Z,100800.28
2023-05-18T17:18:09.520Z,100799.50
2023-05-18T17:20:40.129Z,100799.50
2023-05-18T17:23:12.733Z,100804.31
2023-05-18T17:25:48.360Z,100809.97
2023-05-18T17:28:23.682Z,100814.41
2023-05-18T17:30:58.882Z,100818.47
2023-05-18T17:33:29.563Z,100826.16
2023-05-18T17:36:01.024Z,100829.38
2023-05-18T17:38:33.116Z,100832.22
2023-05-18T17:41:04.759Z,100833.41
2023-05-18T17:43:40.930Z,100835.41
2023-05-18T17:46:26.315Z,100845.13
2023-05-18T17:48:57.879Z,100838.22
2023-05-18T17:51:28.601Z,100844.28
2023-05-18T17:54:11.974Z,100846.28
2023-05-18T17:56:43.513Z,100843.03
2023-05-18T17:59:16.758Z,100843.44
2023-05-18T18:01:50.397Z,100855.59
2023-05-18T18:04:21.224Z,100853.53
2023-05-18T18:06:56.702Z,100851.06
2023-05-18T18:09:29.177Z,100845.81
2023-05-18T18:12:01.617Z,100854.28
2023-05-18T18:14:32.924Z,100854.28
2023-05-18T18:17:08.286Z,100861.19
2023-05-18T18:19:40.573Z,100872.09
2023-05-18T18:22:14.174Z,100873.72
2023-05-18T18:24:45.555Z,100869.66
2023-05-18T18:27:20.904Z,100867.66
2023-05-18T18:29:53.378Z,100868.03
2023-05-18T18:32:26.047Z,100870.84
2023-05-18T18:35:00.082Z,100878.53
2023-05-18T18:37:31.797Z,100867.63
2023-05-18T18:40:03.776Z,100875.28
2023-05-18T18:42:34.606Z,100868.81
2023-05-18T18:45:07.158Z,100868.00
2023-05-18T18:47:51.775Z,100863.53
2023-05-18T18:50:27.798Z,100869.19
2023-05-18T18:52:58.756Z,100861.91
2023-05-18T18:55:31.271Z,100867.56
2023-05-18T18:58:03.031Z,100876.06
2023-05-18T19:00:33.660Z,100876.06
2023-05-18T19:03:13.091Z,100879.72
2023-05-18T19:05:45.782Z,100880.91
2023-05-18T19:08:19.461Z,100880.91
2023-05-18T19:10:50.853Z,100884.53
2023-05-18T19:13:21.795Z,100883.75
2023-05-18T19:15:55.279Z,100878.06
2023-05-18T19:18:30.203Z,100873.22
2023-05-18T19:21:01.951Z,100873.22
2023-05-18T19:23:32.839Z,100876.06
2023-05-18T19:26:03.747Z,100871.22
2023-05-18T19:28:37.947Z,100872.41
2023-05-18T19:31:10.920Z,100867.97
2023-05-18T19:33:44.740Z,100863.50
2023-05-18T19:36:16.281Z,100874.03
2023-05-18T19:38:47.101Z,100873.19
2023-05-18T19:41:22.964Z,100866.72
2023-05-18T19:43:57.175Z,100867.09
2023-05-18T19:46:31.023Z,100859.84
2023-05-18T19:49:10.724Z,100863.88
2023-05-18T19:51:41.639Z,100861.03
2023-05-18T19:54:13.808Z,100859.41
2023-05-18T19:56:45.436Z,100847.25
2023-05-18T19:59:16.406Z,100850.09
2023-05-18T20:01:48.808Z,100852.91
2023-05-18T20:04:24.175Z,100856.94
2023-05-18T20:06:55.839Z,100846.03
2023-05-18T20:09:28.543Z,100848.06
2023-05-18T20:11:59.235Z,100850.06
2023-05-18T20:14:31.003Z,100846.44
2023-05-18T20:17:03.781Z,100845.59
2023-05-18T20:19:38.057Z,100847.63
2023-05-18T20:22:11.576Z,100852.44
2023-05-18T20:24:43.803Z,100839.47
2023-05-18T20:27:17.801Z,100845.97
2023-05-18T20:30:14.649Z,100843.13
2023-05-18T20:32:47.245Z,100839.06
2023-05-18T20:35:21.307Z,100839.88
2023-05-18T20:37:56.351Z,100841.91
2023-05-18T20:40:31.921Z,100842.28
2023-05-18T20:43:06.869Z,100840.19
2023-05-18T20:45:38.597Z,100830.03
2023-05-18T20:48:10.437Z,100834.47
2023-05-18T20:50:43.148Z,100835.28
2023-05-18T20:53:14.659Z,100838.50
2023-05-18T20:55:47.531Z,100835.66
2023-05-18T20:58:19.568Z,100836.06
2023-05-18T21:00:50.192Z,100842.13
2023-05-18T21:03:20.877Z,100837.66
2023-05-18T21:05:53.828Z,100838.44
2023-05-18T21:08:23.797Z,100837.66
2023-05-18T21:10:54.157Z,100846.94
2023-05-18T21:13:27.786Z,100845.31
2023-05-18T21:15:58.368Z,100845.72
2023-05-18T21:18:28.436Z,100841.66
2023-05-18T21:21:00.316Z,100841.22
2023-05-18T21:23:30.818Z,100831.50
2023-05-18T21:26:00.861Z,100834.66
2023-05-18T21:28:30.883Z,100826.13
2023-05-18T21:31:00.806Z,100823.28
2023-05-18T21:33:32.055Z,100819.22
2023-05-18T21:36:04.902Z,100813.88
2023-05-18T21:38:36.300Z,100807.81
2023-05-18T21:41:07.055Z,100809.44
2023-05-18T21:43:37.056Z,100813.88
2023-05-18T21:46:09.296Z,100809.06
2023-05-18T21:48:40.226Z,100801.81
2023-05-18T21:51:14.374Z,100806.63
2023-05-18T21:53:44.884Z,100805.41
2023-05-18T21:56:15.410Z,100798.53
2023-05-18T21:58:45.936Z,100790.44
2023-05-18T22:01:20.012Z,100795.25
2023-05-18T22:03:51.125Z,100785.16
2023-05-18T22:06:24.230Z,100784.69
2023-05-18T22:08:54.356Z,100787.09
2023-05-18T22:11:24.989Z,100777.81
2023-05-18T22:13:55.468Z,100775.81
2023-05-18T22:16:25.265Z,100772.56
2023-05-18T22:18:55.952Z,100777.03
2023-05-18T22:21:27.937Z,100769.38
2023-05-18T22:23:58.538Z,100771.00
2023-05-18T22:26:30.018Z,100771.00
2023-05-18T22:29:00.283Z,100772.22
2023-05-18T22:31:30.813Z,100777.00
2023-05-18T22:34:01.386Z,100773.75
2023-05-18T22:36:36.009Z,100767.66
2023-05-18T22:39:06.780Z,100757.94
2023-05-18T22:41:37.517Z,100757.50
2023-05-18T22:44:08.182Z,100757.47
2023-05-18T22:46:39.038Z,100756.25
2023-05-18T22:49:09.559Z,100755.41
2023-05-18T22:51:41.908Z,100761.06
2023-05-18T22:54:12.567Z,100755.41
2023-05-18T22:56:43.340Z,100748.13
2023-05-18T22:59:14.512Z,100756.19
2023-05-18T23:01:45.260Z,100751.31
2023-05-18T23:04:20.108Z,100748.44
2023-05-18T23:06:53.116Z,100748.81
2023-05-18T23:09:23.960Z,100747.19
2023-05-18T23:11:54.043Z,100745.59
2023-05-18T23:14:24.523Z,100745.16
2023-05-18T23:16:58.640Z,100748.34
2023-05-18T23:19:29.287Z,100743.09
2023-05-18T23:22:02.068Z,100745.13
2023-05-18T23:24:32.410Z,100745.13
2023-05-18T23:27:02.326Z,100746.31
2023-05-18T23:29:32.527Z,100746.31
2023-05-18T23:32:02.862Z,100743.03
2023-05-18T23:34:34.193Z,100746.28
2023-05-18T23:37:10.982Z,100745.44
2023-05-18T23:39:43.851Z,100733.34
2023-05-18T23:42:16.751Z,100733.34
2023-05-18T23:44:48.506Z,100730.50
2023-05-18T23:47:20.076Z,100724.47
2023-05-18T23:49:51.274Z,100728.50
2023-05-18T23:52:25.380Z,100727.69
2023-05-18T23:54:56.215Z,100729.31
2023-05-18T23:57:28.233Z,100732.94
